Time;durP1;ratioP1;P1;durP2;ratioP2;P2;SDS_P1;SDS_P2;PMS_P1;PMS_P2;Temp;Humidity;BMP_temperature;BMP_pressure;BME280_temperature;BME280_humidity;BME280_pressure;Samples;Min_cycle;Max_cycle;Signal;HPM_P1;HPM_P2
2022/11/24 00:01:51;;;;;;;2.57;1.47;;;;;;;6.96;91.96;99270.66;4993044;28;20630;-80
2022/11/24 00:04:19;;;;;;;1.40;1.30;;;;;;;6.96;91.95;99272.41;4993127;28;20305;-80
2022/11/24 00:06:45;;;;;;;3.53;1.40;;;;;;;6.84;92.30;99280.44;4993684;28;20223;-80
2022/11/24 00:09:12;;;;;;;5.07;2.07;;;;;;;6.77;92.21;99282.34;4993675;28;20231;-80
2022/11/24 00:11:38;;;;;;;4.17;1.80;;;;;;;6.82;93.30;99274.44;4993505;28;20242;-79
2022/11/24 00:14:06;;;;;;;2.80;2.60;;;;;;;6.87;93.34;99260.50;4993762;28;20212;-80
2022/11/24 00:16:34;;;;;;;1.90;1.60;;;;;;;6.87;94.53;99244.09;4993552;28;20205;-80
2022/11/24 00:19:03;;;;;;;4.03;1.80;;;;;;;6.87;93.37;99242.34;4998558;28;20220;-80
2022/11/24 00:21:32;;;;;;;3.37;2.40;;;;;;;6.75;93.79;99251.25;5001456;28;20234;-80
2022/11/24 00:23:59;;;;;;;4.10;1.50;;;;;;;6.76;94.37;99247.78;5002548;28;20203;-80
2022/11/24 00:26:27;;;;;;;2.00;1.80;;;;;;;6.70;94.17;99229.78;5002374;28;20212;-80
2022/11/24 00:28:56;;;;;;;3.80;2.07;;;;;;;6.63;94.22;99242.91;5002526;28;20246;-80
2022/11/24 00:31:24;;;;;;;2.17;1.90;;;;;;;6.65;95.19;99235.94;5001718;28;20226;-80
2022/11/24 00:33:52;;;;;;;3.30;1.73;;;;;;;6.68;93.92;99244.50;5004175;28;20674;-80
2022/11/24 00:36:20;;;;;;;4.87;2.17;;;;;;;6.72;94.11;99250.50;5023121;28;20214;-80
2022/11/24 00:38:53;;;;;;;4.57;2.57;;;;;;;6.69;93.07;99255.72;5022871;28;20449;-80
2022/11/24 00:41:19;;;;;;;2.93;1.80;;;;;;;6.71;94.67;99251.34;5022752;28;20224;-81
2022/11/24 00:43:46;;;;;;;2.50;2.30;;;;;;;6.70;94.59;99254.81;5022530;28;20208;-79
2022/11/24 00:46:13;;;;;;;3.33;2.10;;;;;;;6.75;94.01;99268.56;5023395;28;20214;-80
2022/11/24 00:48:39;;;;;;;2.07;1.83;;;;;;;6.79;93.26;99282.31;5022994;28;20241;-80
2022/11/24 00:51:08;;;;;;;3.33;2.17;;;;;;;6.78;93.74;99303.94;5022656;28;20239;-81
2022/11/24 00:53:35;;;;;;;2.70;1.80;;;;;;;6.86;93.09;99317.63;5024171;28;20702;-80
2022/11/24 00:56:03;;;;;;;3.30;2.00;;;;;;;6.90;92.83;99325.28;5024055;28;20204;-81
2022/11/24 00:58:30;;;;;;;4.80;2.00;;;;;;;6.93;92.92;99327.78;5025263;28;20249;-80
2022/11/24 01:01:02;;;;;;;10.80;1.90;;;;;;;6.92;93.43;99320.06;5035955;28;20234;-80
2022/11/24 01:03:28;;;;;;;4.70;1.70;;;;;;;6.94;93.72;99319.13;5036321;28;20270;-80
2022/11/24 01:05:55;;;;;;;3.17;2.00;;;;;;;6.97;94.12;99313.03;5035770;28;20208;-79
2022/11/24 01:08:21;;;;;;;3.30;2.10;;;;;;;7.01;93.26;99319.00;5036226;28;20230;-80
2022/11/24 01:10:48;;;;;;;2.60;2.03;;;;;;;7.04;92.94;99324.13;5034660;28;20240;-80
2022/11/24 01:13:16;;;;;;;2.20;1.67;;;;;;;6.95;94.36;99314.78;5036757;28;20195;-80
2022/11/24 01:15:42;;;;;;;3.33;2.10;;;;;;;6.99;94.07;99306.06;5032325;28;20267;-79
2022/11/24 01:18:12;;;;;;;4.30;2.27;;;;;;;6.95;94.07;99301.81;5018455;28;20248;-80
2022/11/24 01:20:38;;;;;;;3.40;2.40;;;;;;;6.92;94.97;99288.94;5018015;28;20318;-80
2022/11/24 01:23:04;;;;;;;5.10;1.80;;;;;;;7.03;93.89;99314.63;5018241;28;20213;-80
2022/11/24 01:25:31;;;;;;;2.70;2.10;;;;;;;7.07;93.00;99335.28;5018113;28;20836;-79
2022/11/24 01:27:57;;;;;;;2.17;1.97;;;;;;;7.09;92.87;99348.22;5017965;28;20230;-80
2022/11/24 01:30:25;;;;;;;4.43;2.33;;;;;;;7.10;93.13;99335.22;5014883;28;20230;-78
2022/11/24 01:32:51;;;;;;;2.43;1.97;;;;;;;7.09;93.46;99336.09;5015374;28;20206;-80
2022/11/24 01:35:18;;;;;;;2.07;1.83;;;;;;;7.08;93.47;99342.19;5015197;28;20217;-80
2022/11/24 01:37:44;;;;;;;3.87;2.50;;;;;;;7.08;93.23;99346.53;5015006;28;20203;-77
2022/11/24 01:40:11;;;;;;;3.17;1.90;;;;;;;6.95;93.20;99354.56;5014263;28;20640;-80
2022/11/24 01:42:46;;;;;;;4.50;2.37;;;;;;;7.01;92.63;99350.13;5014993;28;20233;-80
2022/11/24 01:45:34;;;;;;;2.87;1.87;;;;;;;6.92;92.94;99367.59;5014789;28;20205;-80
2022/11/24 01:48:04;;;;;;;5.90;2.03;;;;;;;6.91;92.44;99380.59;5014943;28;20321;-79
2022/11/24 01:50:31;;;;;;;5.97;2.30;;;;;;;6.90;92.60;99384.09;5014267;28;20241;-79
2022/11/24 01:52:58;;;;;;;6.93;2.37;;;;;;;6.92;93.00;99390.13;5014708;28;20220;-80
2022/11/24 01:55:30;;;;;;;4.27;1.93;;;;;;;7.00;91.92;99398.59;5014873;28;20209;-80
2022/11/24 01:58:01;;;;;;;4.53;2.13;;;;;;;7.04;91.90;99392.44;5014686;28;20206;-80
2022/11/24 02:00:27;;;;;;;4.27;2.30;;;;;;;7.11;92.07;99411.31;5014222;28;20234;-79
2022/11/24 02:02:58;;;;;;;5.03;2.70;;;;;;;7.08;91.70;99411.41;5014659;28;20207;-80
2022/11/24 02:05:28;;;;;;;3.10;2.23;;;;;;;7.09;91.55;99418.28;5016369;28;20210;-80
2022/11/24 02:07:59;;;;;;;5.13;3.20;;;;;;;7.05;91.22;99417.47;5014533;28;20705;-80
2022/11/24 02:10:26;;;;;;;5.30;2.03;;;;;;;7.00;91.92;99402.91;5015290;28;20743;-80
2022/11/24 02:12:56;;;;;;;4.17;2.27;;;;;;;6.99;92.20;99396.84;5015979;28;20215;-80
2022/11/24 02:15:22;;;;;;;6.00;2.20;;;;;;;7.05;92.21;99394.13;5015958;28;20215;-80
2022/11/24 02:17:49;;;;;;;5.50;2.40;;;;;;;7.07;92.58;99396.69;5015958;28;20202;-80
2022/11/24 02:20:17;;;;;;;2.37;1.93;;;;;;;6.99;92.33;99402.03;5015779;28;20234;-78
2022/11/24 02:22:51;;;;;;;3.17;2.00;;;;;;;6.93;92.39;99394.41;5015613;28;20207;-80
2022/11/24 02:25:27;;;;;;;4.17;2.23;;;;;;;6.84;92.24;99377.28;5016071;28;20221;-80
2022/11/24 02:27:56;;;;;;;3.07;1.93;;;;;;;6.70;93.59;99377.59;5015938;28;20206;-80
2022/11/24 02:30:23;;;;;;;2.50;2.03;;;;;;;6.63;93.95;99355.25;5014687;28;20232;-80
2022/11/24 02:32:52;;;;;;;3.57;2.20;;;;;;;6.68;94.70;99344.75;5015825;28;20206;-80
2022/11/24 02:35:19;;;;;;;5.47;1.80;;;;;;;6.75;94.74;99342.00;5015938;28;20215;-80
2022/11/24 02:37:45;;;;;;;4.33;2.27;;;;;;;6.69;95.37;99330.94;5015545;28;20755;-80
2022/11/24 02:40:15;;;;;;;4.20;2.60;;;;;;;6.71;94.94;99329.16;5015294;28;20609;-80
2022/11/24 02:42:45;;;;;;;7.53;2.50;;;;;;;6.79;94.49;99327.25;5015431;28;20261;-80
2022/11/24 02:45:15;;;;;;;3.13;1.83;;;;;;;6.84;94.83;99327.13;5015953;28;20217;-80
2022/11/24 02:47:41;;;;;;;4.17;2.10;;;;;;;6.83;94.32;99331.47;5014103;28;20735;-79
2022/11/24 02:50:08;;;;;;;8.30;2.20;;;;;;;6.81;94.56;99335.84;5013096;28;20234;-80
2022/11/24 02:52:35;;;;;;;4.00;2.30;;;;;;;6.88;94.48;99350.41;5013680;28;20209;-80
2022/11/24 02:55:01;;;;;;;5.60;2.37;;;;;;;6.95;95.01;99351.97;5013698;28;20215;-80
2022/11/24 02:57:28;;;;;;;5.43;2.00;;;;;;;7.01;94.64;99358.75;5013734;28;20226;-80
2022/11/24 02:59:54;;;;;;;3.47;1.60;;;;;;;6.99;94.11;99362.28;5013557;28;20237;-79
2022/11/24 03:02:22;;;;;;;4.77;2.33;;;;;;;7.01;94.36;99363.94;5013435;28;20217;-80
2022/11/24 03:04:49;;;;;;;4.97;1.87;;;;;;;7.05;94.91;99368.19;5013327;28;20214;-80
2022/11/24 03:07:15;;;;;;;5.60;2.17;;;;;;;7.07;94.45;99365.56;5013091;28;20213;-80
2022/11/24 03:09:42;;;;;;;5.73;2.63;;;;;;;7.04;95.12;99365.66;5012826;28;20851;-79
2022/11/24 03:12:08;;;;;;;2.50;2.10;;;;;;;7.11;95.56;99359.41;5013102;28;20213;-78
2022/11/24 03:14:35;;;;;;;3.70;1.77;;;;;;;7.13;95.53;99368.88;5013256;28;20211;-78
2022/11/24 03:17:01;;;;;;;5.30;2.20;;;;;;;7.16;95.42;99365.38;5012833;28;20225;-77
2022/11/24 03:19:29;;;;;;;7.23;2.33;;;;;;;7.12;94.96;99374.97;5012888;28;20213;-79
2022/11/24 03:21:55;;;;;;;6.33;2.10;;;;;;;7.19;94.67;99388.63;5012864;28;20209;-80
2022/11/24 03:24:22;;;;;;;5.30;1.90;;;;;;;7.22;94.40;99388.59;5012953;28;20218;-80
2022/11/24 03:26:48;;;;;;;6.23;2.53;;;;;;;7.31;94.54;99403.97;5013234;28;20225;-78
2022/11/24 03:29:15;;;;;;;5.00;2.37;;;;;;;7.37;94.57;99405.53;5012975;28;20227;-78
2022/11/24 03:31:42;;;;;;;4.23;2.20;;;;;;;7.39;94.35;99413.31;5012403;28;20258;-79
2022/11/24 03:34:09;;;;;;;7.17;2.40;;;;;;;7.38;94.19;99417.66;5012884;28;20578;-80
2022/11/24 03:36:36;;;;;;;4.97;2.00;;;;;;;7.36;93.96;99425.47;5012747;28;20611;-80
2022/11/24 03:39:03;;;;;;;4.67;1.90;;;;;;;7.43;93.67;99426.16;5012610;28;20677;-80
2022/11/24 03:41:29;;;;;;;4.20;1.83;;;;;;;7.40;94.04;99435.78;5012661;28;20231;-79
2022/11/24 03:43:56;;;;;;;5.17;2.73;;;;;;;7.36;93.95;99438.44;5012648;28;20215;-80
2022/11/24 03:46:22;;;;;;;3.40;1.90;;;;;;;7.41;93.71;99440.94;5012806;28;20218;-80
2022/11/24 03:48:49;;;;;;;4.40;2.43;;;;;;;7.33;93.26;99442.84;5012450;28;20233;-80
2022/11/24 03:51:15;;;;;;;4.17;2.60;;;;;;;7.37;93.71;99436.69;5012349;28;20373;-79
2022/11/24 03:53:43;;;;;;;5.80;3.40;;;;;;;7.30;94.13;99424.75;5011701;28;20214;-80
2022/11/24 03:56:09;;;;;;;4.83;2.77;;;;;;;7.31;93.52;99436.84;5012646;28;20216;-80
2022/11/24 03:58:36;;;;;;;5.40;2.40;;;;;;;7.23;92.80;99456.91;5012676;28;20209;-80
2022/11/24 04:01:02;;;;;;;6.60;2.90;;;;;;;7.14;93.19;99447.59;5012161;28;20248;-79
2022/11/24 04:03:29;;;;;;;5.90;2.67;;;;;;;7.08;93.80;99440.78;5012402;28;20233;-79
2022/11/24 04:05:55;;;;;;;9.10;3.20;;;;;;;7.02;94.08;99447.84;5012581;28;20213;-80
2022/11/24 04:08:22;;;;;;;5.93;2.90;;;;;;;7.07;93.92;99446.00;5012899;28;20206;-80
2022/11/24 04:10:54;;;;;;;6.13;2.60;;;;;;;7.15;93.47;99454.47;5012435;28;20770;-80
2022/11/24 04:13:21;;;;;;;4.37;2.50;;;;;;;7.20;92.91;99457.00;5012477;28;20216;-80
2022/11/24 04:15:48;;;;;;;6.30;3.60;;;;;;;7.12;93.14;99483.09;5012633;28;20600;-79
2022/11/24 04:18:15;;;;;;;9.20;2.87;;;;;;;7.16;92.64;99495.13;5012352;28;20214;-80
2022/11/24 04:20:41;;;;;;;4.67;2.63;;;;;;;7.21;92.67;99500.22;5012050;28;20318;-80
2022/11/24 04:23:09;;;;;;;8.53;2.63;;;;;;;7.21;91.93;99508.00;5012820;28;20211;-80
2022/11/24 04:25:36;;;;;;;6.53;3.10;;;;;;;7.20;91.75;99514.94;5013683;28;20209;-79
2022/11/24 04:28:04;;;;;;;3.47;2.07;;;;;;;7.24;91.54;99533.91;5012347;28;20199;-80
2022/11/24 04:30:31;;;;;;;6.80;2.60;;;;;;;7.25;91.47;99539.03;5011725;28;20245;-80
2022/11/24 04:32:58;;;;;;;6.50;2.30;;;;;;;7.27;91.67;99552.00;5012330;28;20206;-80
2022/11/24 04:35:24;;;;;;;5.57;2.40;;;;;;;7.29;91.20;99548.47;5012081;28;20210;-80
2022/11/24 04:37:51;;;;;;;4.37;2.27;;;;;;;7.30;91.38;99563.19;5012364;28;20202;-80
2022/11/24 04:40:18;;;;;;;5.23;2.40;;;;;;;7.29;91.70;99558.00;5011920;28;20225;-78
2022/11/24 04:42:51;;;;;;;6.47;2.07;;;;;;;7.31;91.61;99559.72;5012193;28;20207;-79
2022/11/24 04:45:19;;;;;;;3.40;1.67;;;;;;;7.30;92.28;99555.41;5012291;28;20210;-79
2022/11/24 04:47:45;;;;;;;2.90;1.70;;;;;;;7.32;92.16;99556.22;5011977;28;20219;-80
2022/11/24 04:50:12;;;;;;;9.10;2.30;;;;;;;7.33;91.89;99547.56;5011887;28;20233;-80
2022/11/24 04:52:38;;;;;;;5.60;2.23;;;;;;;7.30;92.33;99539.81;5012150;28;20241;-80
2022/11/24 04:55:05;;;;;;;3.80;2.07;;;;;;;7.26;93.06;99547.72;5012178;28;20669;-80
2022/11/24 04:57:32;;;;;;;4.67;2.27;;;;;;;7.29;92.21;99542.44;5012008;28;20217;-79
2022/11/24 04:59:58;;;;;;;4.00;2.30;;;;;;;7.31;92.30;99554.53;5011705;28;20230;-80
2022/11/24 05:02:26;;;;;;;2.93;2.10;;;;;;;7.26;92.64;99545.13;5011895;28;20214;-80
2022/11/24 05:04:52;;;;;;;3.13;1.80;;;;;;;7.24;93.06;99546.88;5012702;28;20237;-79
2022/11/24 05:07:19;;;;;;;4.83;2.37;;;;;;;7.28;92.48;99548.53;5015844;28;20211;-80
2022/11/24 05:12:30;;;;;;;4.20;2.90;;;;;;;7.17;92.63;99566.91;5016250;28;20252;-80
2022/11/24 05:14:57;;;;;;;5.73;2.27;;;;;;;7.16;92.45;99560.00;5016440;28;20215;-80
2022/11/24 05:17:23;;;;;;;5.20;2.30;;;;;;;7.18;93.14;99557.38;5016180;28;20211;-80
2022/11/24 05:19:51;;;;;;;5.83;2.57;;;;;;;7.20;93.22;99548.69;5015561;28;20253;-77
2022/11/24 05:22:17;;;;;;;4.53;2.47;;;;;;;7.22;92.99;99561.63;5016014;28;20293;-78
2022/11/24 05:24:44;;;;;;;4.53;3.07;;;;;;;7.25;92.59;99554.63;5015759;28;20203;-78
2022/11/24 05:27:11;;;;;;;3.93;2.50;;;;;;;7.24;92.84;99562.47;5015728;28;20214;-78
2022/11/24 05:29:37;;;;;;;9.13;4.00;;;;;;;7.08;94.04;99546.34;5017791;28;20226;-77
2022/11/24 05:32:04;;;;;;;5.43;3.30;;;;;;;7.13;93.73;99534.94;5015474;28;20221;-78
2022/11/24 05:34:32;;;;;;;4.03;2.43;;;;;;;7.02;93.38;99549.88;5015611;28;20211;-78
2022/11/24 05:37:02;;;;;;;3.97;2.73;;;;;;;6.99;93.17;99543.91;5015752;28;20786;-78
2022/11/24 05:39:28;;;;;;;7.20;2.40;;;;;;;6.74;94.46;99549.53;5016153;28;20211;-78
2022/11/24 05:41:55;;;;;;;5.60;2.27;;;;;;;6.75;94.35;99526.16;5015195;28;20210;-78
2022/11/24 05:44:21;;;;;;;3.97;2.10;;;;;;;6.73;94.56;99533.09;5015761;28;20217;-78
2022/11/24 05:46:48;;;;;;;6.10;2.83;;;;;;;6.78;94.46;99529.56;5016431;28;20209;-79
2022/11/24 05:49:14;;;;;;;6.30;2.83;;;;;;;6.72;94.78;99530.56;5016042;28;20235;-78
2022/11/24 05:51:41;;;;;;;5.33;2.73;;;;;;;6.71;94.80;99524.50;5038274;22;20649;-84
2022/11/24 05:54:08;;;;;;;4.03;2.40;;;;;;;6.71;94.87;99527.09;5016427;28;20232;-87
2022/11/24 05:56:35;;;;;;;4.10;2.00;;;;;;;6.73;94.52;99532.25;5016766;28;20214;-87
2022/11/24 05:59:01;;;;;;;4.57;2.17;;;;;;;6.57;95.29;99529.09;5015756;28;20198;-87
2022/11/24 06:01:28;;;;;;;5.90;2.43;;;;;;;6.57;95.51;99516.97;5015485;28;20218;-86
2022/11/24 06:03:54;;;;;;;7.80;2.73;;;;;;;6.60;95.21;99508.28;5015976;28;20314;-85
2022/11/24 06:06:20;;;;;;;3.70;2.73;;;;;;;6.68;95.93;99500.34;5015862;28;20210;-87
2022/11/24 06:08:47;;;;;;;8.40;2.40;;;;;;;6.71;95.38;99508.09;5015890;28;20210;-87
2022/11/24 06:11:18;;;;;;;5.93;2.03;;;;;;;6.80;95.25;99514.84;5015260;28;20211;-86
2022/11/24 06:13:45;;;;;;;4.90;2.00;;;;;;;6.83;95.01;99532.94;5015813;28;20218;-86
2022/11/24 06:16:11;;;;;;;5.00;2.37;;;;;;;6.83;94.54;99548.50;5014970;28;20218;-87
2022/11/24 06:18:38;;;;;;;8.53;2.47;;;;;;;6.80;93.83;99556.34;5015520;28;20657;-86
2022/11/24 06:21:05;;;;;;;8.57;2.30;;;;;;;6.87;94.25;99573.50;5015177;28;20214;-86
2022/11/24 06:23:32;;;;;;;7.77;2.70;;;;;;;6.85;94.65;99576.13;5015393;28;20229;-86
2022/11/24 06:25:58;;;;;;;7.03;2.83;;;;;;;6.78;94.72;99579.72;5014811;28;20560;-86
2022/11/24 06:28:27;;;;;;;5.33;2.13;;;;;;;6.75;95.14;99567.66;5015391;28;20711;-87
2022/11/24 06:30:54;;;;;;;5.97;2.30;;;;;;;6.86;95.08;99569.22;5015255;28;20249;-87
2022/11/24 06:33:20;;;;;;;5.80;2.27;;;;;;;6.92;95.48;99564.78;5015926;28;20226;-87
2022/11/24 06:35:47;;;;;;;2.70;1.93;;;;;;;6.91;95.10;99567.38;5016282;28;20218;-86
2022/11/24 06:38:14;;;;;;;5.23;3.03;;;;;;;6.95;94.66;99579.41;5016980;28;20202;-86
2022/11/24 06:40:43;;;;;;;5.20;2.20;;;;;;;6.99;94.08;99588.00;5036614;28;20288;-87
2022/11/24 06:43:09;;;;;;;3.77;1.77;;;;;;;7.04;93.82;99596.56;5042556;28;20241;-86
2022/11/24 06:45:37;;;;;;;6.03;2.37;;;;;;;6.92;93.93;99595.91;5041680;28;20206;-87
2022/11/24 06:48:04;;;;;;;3.70;2.03;;;;;;;6.98;93.77;99602.72;5038088;28;20198;-85
2022/11/24 06:50:30;;;;;;;3.00;2.00;;;;;;;7.00;94.28;99605.25;5031888;28;20220;-85
2022/11/24 06:52:57;;;;;;;2.90;1.90;;;;;;;6.93;93.92;99612.31;5034692;28;20612;-82
2022/11/24 06:55:23;;;;;;;3.97;2.07;;;;;;;6.97;93.32;99613.97;5043598;28;20194;-82
2022/11/24 06:57:50;;;;;;;7.17;2.53;;;;;;;6.90;93.77;99626.22;5039011;28;20205;-82
2022/11/24 07:00:17;;;;;;;4.83;2.40;;;;;;;7.02;94.02;99616.50;5040830;28;20198;-83
2022/11/24 07:02:45;;;;;;;5.17;2.20;;;;;;;7.07;93.75;99623.28;5044586;28;20213;-82
2022/11/24 07:05:12;;;;;;;4.57;1.97;;;;;;;6.97;94.09;99620.00;5033993;28;20217;-86
2022/11/24 07:07:38;;;;;;;6.17;1.80;;;;;;;7.00;93.89;99626.91;5034777;28;20302;-86
2022/11/24 07:10:06;;;;;;;5.33;2.43;;;;;;;7.03;93.91;99624.25;5033700;28;20227;-84
2022/11/24 07:12:34;;;;;;;3.10;1.80;;;;;;;6.97;94.02;99635.56;5032238;28;20223;-86
2022/11/24 07:15:00;;;;;;;7.60;2.60;;;;;;;6.93;93.87;99626.13;5032979;28;20199;-85
2022/11/24 07:17:37;;;;;;;6.17;2.37;;;;;;;7.03;94.63;99608.66;5030832;28;20211;-86
2022/11/24 07:20:09;;;;;;;4.07;2.37;;;;;;;6.90;94.88;99613.22;5026032;28;20222;-86
2022/11/24 07:22:35;;;;;;;7.33;2.13;;;;;;;7.06;94.97;99605.19;5033957;28;20233;-85
2022/11/24 07:25:06;;;;;;;9.87;2.40;;;;;;;7.18;94.29;99617.94;5033636;28;20211;-84
2022/11/24 07:27:32;;;;;;;5.00;2.40;;;;;;;7.18;94.21;99624.88;5034096;28;20214;-87
2022/11/24 07:29:59;;;;;;;10.53;2.47;;;;;;;7.23;93.90;99642.03;5032324;28;20230;-85
2022/11/24 07:32:25;;;;;;;9.73;2.40;;;;;;;7.29;93.52;99652.31;5028966;28;20250;-84
2022/11/24 07:34:52;;;;;;;6.43;2.70;;;;;;;7.36;93.13;99656.53;5026624;28;20198;-87
2022/11/24 07:37:19;;;;;;;7.93;2.20;;;;;;;7.33;93.51;99658.31;5040533;28;20199;-86
2022/11/24 07:39:46;;;;;;;4.43;2.00;;;;;;;7.31;94.52;99652.28;5036514;28;20199;-86
2022/11/24 07:42:12;;;;;;;7.97;2.30;;;;;;;7.25;94.41;99649.81;5023791;28;20230;-85
2022/11/24 07:44:44;;;;;;;5.43;2.40;;;;;;;7.27;94.70;99648.88;5017409;28;20207;-83
2022/11/24 07:47:10;;;;;;;7.47;3.10;;;;;;;7.34;95.02;99649.66;5019059;28;20961;-84
2022/11/24 07:49:37;;;;;;;12.83;2.80;;;;;;;7.45;94.77;99658.09;5019528;28;20261;-81
2022/11/24 07:52:04;;;;;;;7.77;2.03;;;;;;;7.39;95.19;99647.81;5013072;28;20763;-82
2022/11/24 07:54:32;;;;;;;7.87;2.57;;;;;;;7.40;95.46;99648.69;5013961;28;20234;-87
2022/11/24 07:56:58;;;;;;;5.67;2.33;;;;;;;7.42;95.58;99649.50;5013263;28;20750;-85
2022/11/24 08:02:46;;;;;;;5.60;2.10;;;;;;;7.48;95.56;99644.19;5018364;28;20260;-85
2022/11/24 08:05:13;;;;;;;7.00;2.00;;;;;;;7.42;97.10;99627.00;5013190;28;20217;-83
2022/11/24 08:07:39;;;;;;;5.80;2.20;;;;;;;7.42;96.65;99611.41;5013439;28;20214;-83
2022/11/24 08:10:08;;;;;;;6.93;2.83;;;;;;;7.39;96.53;99616.66;5013083;28;20602;-84
2022/11/24 08:12:35;;;;;;;8.00;2.63;;;;;;;7.45;96.67;99610.50;5025515;28;20233;-85
2022/11/24 08:15:01;;;;;;;8.93;7.90;;;;;;;7.52;96.28;99628.53;5017738;28;20206;-83
2022/11/24 08:17:28;;;;;;;8.63;2.60;;;;;;;7.53;95.40;99650.16;5012993;28;20202;-84
2022/11/24 08:19:55;;;;;;;7.23;2.63;;;;;;;7.54;95.18;99651.88;5015139;28;20207;-84
2022/11/24 08:22:21;;;;;;;11.13;3.53;;;;;;;7.55;94.75;99659.63;5017828;28;20792;-84
2022/11/24 08:24:48;;;;;;;5.23;2.57;;;;;;;7.53;95.13;99665.72;5017709;28;20214;-86
2022/11/24 08:27:16;;;;;;;8.80;3.00;;;;;;;7.59;95.05;99678.63;5016338;28;20595;-84
2022/11/24 08:29:43;;;;;;;5.77;2.40;;;;;;;7.62;94.16;99683.75;5019311;28;20713;-85
2022/11/24 08:32:10;;;;;;;7.57;3.33;;;;;;;7.58;94.79;99697.66;5017280;28;20259;-88
2022/11/24 08:34:39;;;;;;;4.83;2.20;;;;;;;7.56;94.60;99683.84;5020740;28;20260;-87
2022/11/24 08:37:06;;;;;;;8.13;2.77;;;;;;;7.61;94.18;99700.22;5018910;28;20210;-85
2022/11/24 08:39:33;;;;;;;6.23;3.03;;;;;;;7.63;93.52;99718.34;5018175;28;20244;-84
2022/11/24 08:42:05;;;;;;;10.30;2.93;;;;;;;7.65;93.33;99724.38;5021321;28;20222;-86
2022/11/24 08:44:33;;;;;;;8.47;2.53;;;;;;;7.70;93.47;99725.16;5022383;28;20222;-87
2022/11/24 08:47:04;;;;;;;8.47;2.53;;;;;;;7.62;93.39;99735.69;5021682;28;20298;-86
2022/11/24 08:49:31;;;;;;;7.53;2.97;;;;;;;7.69;93.62;99737.31;5020541;28;20236;-84
2022/11/24 08:51:57;;;;;;;4.47;2.17;;;;;;;7.64;93.52;99743.47;5018192;28;20721;-82
2022/11/24 08:54:25;;;;;;;6.10;2.60;;;;;;;7.67;93.72;99744.25;5017239;28;20206;-80
2022/11/24 08:56:52;;;;;;;9.57;3.67;;;;;;;7.72;93.16;99750.22;5018080;28;20209;-80
2022/11/24 08:59:18;;;;;;;6.83;2.30;;;;;;;7.76;93.24;99756.22;5018987;28;20245;-80
2022/11/24 09:01:46;;;;;;;7.60;2.50;;;;;;;7.77;93.53;99770.94;5018146;28;20219;-84
2022/11/24 09:04:13;;;;;;;5.40;2.10;;;;;;;7.79;92.97;99778.69;5022126;28;20221;-85
2022/11/24 09:06:56;;;;;;;10.53;2.57;;;;;;;7.87;93.35;99781.97;5021099;28;20211;-88
2022/11/24 09:09:22;;;;;;;5.80;2.60;;;;;;;7.84;93.34;99795.91;5028449;28;20755;-86
2022/11/24 09:11:49;;;;;;;5.70;1.90;;;;;;;7.91;93.35;99792.31;5027650;28;20233;-86
2022/11/24 09:14:15;;;;;;;11.10;2.63;;;;;;;7.95;93.19;99799.16;5024680;28;20202;-84
2022/11/24 09:16:42;;;;;;;9.27;3.07;;;;;;;7.95;93.09;99806.97;5020766;28;20207;-87
2022/11/24 09:19:10;;;;;;;7.20;2.70;;;;;;;8.02;93.19;99812.03;5024944;28;20235;-86
2022/11/24 09:21:37;;;;;;;8.87;2.30;;;;;;;8.18;92.97;99807.41;5016595;28;20223;-84
2022/11/24 09:24:05;;;;;;;8.27;3.67;;;;;;;8.24;92.52;99821.13;5015747;28;20669;-84
2022/11/24 09:26:33;;;;;;;8.67;2.53;;;;;;;8.30;92.97;99820.16;5016102;28;20205;-84
2022/11/24 09:29:01;;;;;;;8.93;2.73;;;;;;;8.41;92.90;99818.25;5016051;28;20206;-84
2022/11/24 09:31:30;;;;;;;6.77;2.27;;;;;;;8.26;92.67;99818.50;5016766;28;20237;-83
2022/11/24 09:33:58;;;;;;;5.97;2.07;;;;;;;8.38;92.69;99828.66;5018752;28;20221;-82
2022/11/24 09:36:26;;;;;;;4.23;2.00;;;;;;;8.49;92.23;99831.09;5018676;28;20207;-84
2022/11/24 09:38:52;;;;;;;8.37;2.30;;;;;;;8.58;91.87;99837.84;5021036;28;20236;-84
2022/11/24 09:41:33;;;;;;;7.40;1.90;;;;;;;8.66;91.63;99854.16;5018183;28;20202;-84
2022/11/24 09:44:07;;;;;;;4.83;2.03;;;;;;;8.64;91.07;99875.03;5015978;28;20234;-82
2022/11/24 09:46:43;;;;;;;7.63;2.13;;;;;;;8.75;90.82;99880.84;5017890;28;20190;-83
2022/11/24 09:49:14;;;;;;;8.03;1.97;;;;;;;8.81;91.04;99889.44;5017120;28;20213;-85
2022/11/24 09:51:47;;;;;;;7.33;3.53;;;;;;;8.82;90.68;99886.81;5017536;28;20241;-84
2022/11/24 09:54:16;;;;;;;6.87;2.60;;;;;;;8.77;89.94;99906.00;5016354;28;20214;-82
2022/11/24 09:56:43;;;;;;;7.37;2.33;;;;;;;8.84;90.64;99913.66;5016505;28;20211;-83
2022/11/24 09:59:15;;;;;;;4.77;1.70;;;;;;;8.77;89.26;99926.81;5020609;28;20207;-84
2022/11/24 10:01:43;;;;;;;5.50;1.73;;;;;;;8.84;89.28;99941.41;5023639;28;20226;-84
2022/11/24 10:04:14;;;;;;;5.93;2.10;;;;;;;8.90;88.80;99949.97;5016734;28;20211;-85
2022/11/24 10:06:48;;;;;;;6.10;3.03;;;;;;;8.75;88.56;99966.72;5018949;28;20217;-83
2022/11/24 10:09:51;;;;;;;8.20;2.30;;;;;;;8.82;88.93;99964.00;5022813;28;20191;-83
2022/11/24 10:12:36;;;;;;;8.73;2.33;;;;;;;8.87;89.33;99969.97;4995564;28;20222;-85
2022/11/24 10:15:24;;;;;;;5.40;1.70;;;;;;;8.99;88.59;99961.06;5030275;28;20210;-85
2022/11/24 10:18:14;;;;;;;4.97;2.07;;;;;;;8.99;88.80;99974.94;5019784;28;20201;-85
2022/11/24 10:20:52;;;;;;;5.60;2.20;;;;;;;8.91;88.86;99975.09;5024857;28;20215;-83
2022/11/24 10:23:35;;;;;;;5.40;2.23;;;;;;;8.83;88.85;99973.53;5029051;28;20233;-84
2022/11/24 10:26:08;;;;;;;8.73;2.37;;;;;;;8.77;89.07;99971.91;5041736;28;20209;-84
2022/11/24 10:28:40;;;;;;;6.37;1.83;;;;;;;8.77;90.41;99945.03;5040397;28;20199;-87
2022/11/24 10:31:22;;;;;;;6.13;1.97;;;;;;;8.79;90.71;99917.22;5037861;28;20236;-84
2022/11/24 10:33:49;;;;;;;5.30;3.07;;;;;;;8.74;91.30;99897.38;5031477;28;20566;-84
2022/11/24 10:36:23;;;;;;;9.43;2.23;;;;;;;8.73;91.11;99894.78;5028669;28;20191;-86
2022/11/24 10:38:58;;;;;;;6.60;2.47;;;;;;;8.70;91.57;99887.03;5025025;28;20374;-84
2022/11/24 10:41:36;;;;;;;6.67;1.90;;;;;;;8.71;90.93;99891.34;5019908;28;20198;-83
2022/11/24 10:44:03;;;;;;;9.43;3.30;;;;;;;8.53;90.86;99888.22;5023050;28;20203;-84
2022/11/24 10:46:29;;;;;;;6.13;2.20;;;;;;;8.62;91.15;99882.00;5028388;28;20220;-83
2022/11/24 10:48:59;;;;;;;6.73;2.10;;;;;;;8.68;91.10;99887.09;5036811;28;20206;-86
2022/11/24 10:51:41;;;;;;;5.80;2.03;;;;;;;8.77;91.06;99885.19;5033257;28;20222;-87
2022/11/24 10:54:16;;;;;;;6.27;2.40;;;;;;;8.84;90.84;99895.44;5033373;28;20680;-86
2022/11/24 10:56:44;;;;;;;6.17;3.03;;;;;;;8.78;90.43;99905.97;5033900;28;20210;-85
2022/11/24 10:59:29;;;;;;;6.00;2.10;;;;;;;8.86;90.17;99913.59;5035760;28;20311;-85
2022/11/24 11:01:56;;;;;;;5.90;2.93;;;;;;;8.91;90.27;99916.97;5033909;28;20230;-86
2022/11/24 11:04:27;;;;;;;4.67;1.80;;;;;;;9.02;90.33;99921.94;5033660;28;20202;-85
2022/11/24 11:07:16;;;;;;;9.50;3.30;;;;;;;9.03;89.44;99939.28;5034099;28;20206;-85
2022/11/24 11:09:44;;;;;;;5.93;2.63;;;;;;;9.08;89.21;99940.06;5030909;28;20676;-85
2022/11/24 11:12:12;;;;;;;6.00;2.30;;;;;;;9.18;88.82;99958.94;5018265;28;20230;-87
2022/11/24 11:14:38;;;;;;;6.03;3.03;;;;;;;9.24;88.70;99974.47;5025437;28;20222;-86
2022/11/24 11:17:37;;;;;;;10.03;3.47;;;;;;;9.32;88.01;99999.44;5018980;28;20211;-87
2022/11/24 11:20:06;;;;;;;5.23;2.07;;;;;;;9.25;86.45;100034.28;5021365;28;20237;-85
2022/11/24 11:22:36;;;;;;;4.97;2.27;;;;;;;9.37;87.07;100034.94;5019300;28;20222;-85
2022/11/24 11:25:20;;;;;;;8.20;2.53;;;;;;;9.26;85.89;100069.88;5016688;28;20672;-86
2022/11/24 11:27:47;;;;;;;9.17;2.30;;;;;;;9.33;85.90;100091.44;5014122;28;20685;-83
2022/11/24 11:30:23;;;;;;;5.77;2.20;;;;;;;9.33;85.93;100091.44;5014876;28;20309;-87
2022/11/24 11:32:54;;;;;;;7.60;2.47;;;;;;;9.41;86.48;100086.09;5014720;28;20234;-87
2022/11/24 11:35:22;;;;;;;9.97;2.40;;;;;;;9.44;86.21;100076.47;5014550;28;20264;-86
2022/11/24 11:37:49;;;;;;;4.87;1.83;;;;;;;9.54;85.41;100093.63;5013026;28;20711;-85
2022/11/24 11:40:21;;;;;;;6.17;1.93;;;;;;;9.62;85.89;100109.13;5013092;28;20210;-83
2022/11/24 11:42:52;;;;;;;5.07;2.43;;;;;;;9.63;84.55;100136.03;5013062;28;20595;-86
2022/11/24 11:45:22;;;;;;;8.67;2.10;;;;;;;9.70;84.65;100140.22;5015220;28;20677;-87
2022/11/24 11:47:53;;;;;;;10.60;3.63;;;;;;;9.72;84.65;100161.91;5016392;28;20206;-85
2022/11/24 11:50:25;;;;;;;6.87;2.40;;;;;;;9.72;84.29;100160.16;5015350;28;20205;-88
2022/11/24 11:53:05;;;;;;;6.07;1.90;;;;;;;9.64;83.74;100172.47;5056383;22;20768;-81
2022/11/24 11:55:44;;;;;;;5.93;2.00;;;;;;;9.70;84.60;100174.97;5056862;28;20201;-78